createdAt,value
2017-11-26T05:00:50.335Z,0
2017-11-26T05:01:15.791Z,0
2017-11-26T05:01:41.305Z,0
2017-11-26T05:02:06.832Z,0
2017-11-26T05:02:32.303Z,0
2017-11-26T05:02:57.818Z,0
2017-11-26T05:03:23.298Z,0
2017-11-26T05:03:48.822Z,0
2017-11-26T05:04:14.308Z,0
2017-11-26T05:04:39.769Z,0
2017-11-26T05:05:05.267Z,0
2017-11-26T05:05:30.744Z,0
2017-11-26T05:05:56.229Z,0
2017-11-26T05:06:21.713Z,0
2017-11-26T05:06:47.196Z,0
2017-11-26T05:07:12.660Z,0
2017-11-26T05:07:38.171Z,0
2017-11-26T05:08:03.645Z,0
2017-11-26T05:08:29.096Z,0
2017-11-26T05:08:54.623Z,0
2017-11-26T05:09:20.081Z,0
2017-11-26T05:09:45.541Z,0
2017-11-26T05:10:11.071Z,0
2017-11-26T05:10:36.525Z,0
2017-11-26T05:11:02.042Z,0
2017-11-26T05:11:27.505Z,0
2017-11-26T05:11:52.986Z,0
2017-11-26T05:12:18.512Z,0
2017-11-26T05:12:43.993Z,0
2017-11-26T05:13:09.473Z,0
2017-11-26T05:13:34.970Z,0
2017-11-26T05:14:00.511Z,0
2017-11-26T05:14:25.978Z,0
2017-11-26T05:14:51.449Z,0
2017-11-26T05:15:16.918Z,0
2017-11-26T05:15:42.398Z,0
2017-11-26T05:16:07.926Z,0
2017-11-26T05:16:33.459Z,0
2017-11-26T05:16:58.938Z,0
2017-11-26T05:17:24.448Z,0
2017-11-26T05:17:49.944Z,0
2017-11-26T05:18:15.456Z,0
2017-11-26T05:18:40.948Z,0
2017-11-26T05:19:06.440Z,0
2017-11-26T05:19:31.960Z,0
2017-11-26T05:19:57.457Z,0
2017-11-26T05:20:22.922Z,0
2017-11-26T05:20:48.420Z,0
2017-11-26T05:21:13.929Z,0
2017-11-26T05:21:39.472Z,0
2017-11-26T05:22:04.995Z,0
2017-11-26T05:22:30.508Z,0
2017-11-26T05:22:55.982Z,0
2017-11-26T05:23:21.451Z,0
2017-11-26T05:23:46.948Z,0
2017-11-26T05:24:12.414Z,0
2017-11-26T05:24:37.875Z,0
2017-11-26T05:25:03.393Z,0
2017-11-26T05:25:28.882Z,0
2017-11-26T05:25:54.370Z,0
2017-11-26T05:26:19.850Z,0
2017-11-26T05:26:45.348Z,0
2017-11-26T05:27:10.862Z,0
2017-11-26T05:27:36.372Z,0
2017-11-26T05:28:01.914Z,0
2017-11-26T05:28:27.359Z,0
2017-11-26T05:28:52.890Z,0
2017-11-26T05:29:18.382Z,0
2017-11-26T05:29:43.917Z,0
2017-11-26T05:30:09.413Z,0
2017-11-26T05:30:34.929Z,0
2017-11-26T05:31:00.404Z,0
2017-11-26T05:31:25.889Z,0
2017-11-26T05:31:51.374Z,0
2017-11-26T05:32:16.826Z,0
2017-11-26T05:32:42.340Z,0
2017-11-26T05:33:07.812Z,0
2017-11-26T05:33:33.292Z,0
2017-11-26T05:33:58.741Z,0
2017-11-26T05:34:24.245Z,0
2017-11-26T05:34:49.737Z,0
2017-11-26T05:35:15.212Z,0
2017-11-26T05:35:40.705Z,0
2017-11-26T05:36:06.191Z,0
2017-11-26T05:36:31.684Z,0
2017-11-26T05:36:57.172Z,0
2017-11-26T05:37:22.675Z,0
2017-11-26T05:37:48.165Z,0
2017-11-26T05:38:13.662Z,0
2017-11-26T05:38:39.172Z,0
2017-11-26T05:39:04.657Z,0
2017-11-26T05:39:30.162Z,0
2017-11-26T05:39:55.668Z,0
2017-11-26T05:40:21.143Z,0
2017-11-26T05:40:46.649Z,0
2017-11-26T05:41:12.125Z,0
2017-11-26T05:41:37.629Z,0
2017-11-26T05:42:03.109Z,0
2017-11-26T05:42:28.600Z,0
2017-11-26T05:42:54.120Z,0
2017-11-26T05:43:19.614Z,0
2017-11-26T05:43:45.069Z,0
2017-11-26T05:44:10.546Z,0
2017-11-26T05:44:36.060Z,0
2017-11-26T05:45:01.525Z,0
2017-11-26T05:45:27.019Z,0
2017-11-26T05:45:52.536Z,0
2017-11-26T05:46:18.037Z,0
2017-11-26T05:46:43.502Z,0
2017-11-26T05:47:09.005Z,0
2017-11-26T05:47:34.466Z,0
2017-11-26T05:47:59.931Z,0
2017-11-26T05:48:25.426Z,0
2017-11-26T05:48:50.936Z,0
2017-11-26T05:49:16.505Z,0
2017-11-26T05:49:41.992Z,0
2017-11-26T05:50:07.456Z,0
2017-11-26T05:50:32.960Z,0
2017-11-26T05:50:58.494Z,0
2017-11-26T05:51:23.996Z,0
2017-11-26T05:51:49.497Z,0
2017-11-26T05:52:14.979Z,0
2017-11-26T05:52:40.511Z,0
2017-11-26T05:53:05.976Z,0
2017-11-26T05:53:31.437Z,0
2017-11-26T05:53:56.905Z,0
2017-11-26T05:54:22.389Z,0
2017-11-26T05:54:47.875Z,0
2017-11-26T05:55:13.385Z,0
2017-11-26T05:55:38.874Z,0
2017-11-26T05:56:04.350Z,0
2017-11-26T05:56:29.888Z,0
2017-11-26T05:56:55.365Z,0
2017-11-26T05:57:20.899Z,0
2017-11-26T05:57:46.388Z,0
2017-11-26T05:58:11.896Z,0
2017-11-26T05:58:37.391Z,0
2017-11-26T05:59:02.875Z,0
2017-11-26T05:59:28.384Z,0
2017-11-26T05:59:53.901Z,0
2017-11-26T06:00:19.400Z,0
2017-11-26T06:00:44.915Z,0
2017-11-26T06:01:10.428Z,0
2017-11-26T06:01:35.876Z,0
2017-11-26T06:02:01.379Z,0
2017-11-26T06:02:26.849Z,0
2017-11-26T06:02:52.357Z,0
2017-11-26T06:03:17.893Z,0
2017-11-26T06:03:43.360Z,0
2017-11-26T06:04:08.856Z,0
2017-11-26T06:04:34.352Z,0
2017-11-26T06:04:59.811Z,0
2017-11-26T06:05:25.289Z,0
2017-11-26T06:05:50.776Z,0
2017-11-26T06:06:16.322Z,0
2017-11-26T06:06:41.774Z,0
2017-11-26T06:07:07.299Z,0
2017-11-26T06:07:32.818Z,0
2017-11-26T06:07:58.297Z,0
2017-11-26T06:08:23.800Z,0
2017-11-26T06:08:49.288Z,0
2017-11-26T06:09:14.805Z,0
2017-11-26T06:09:40.302Z,0
2017-11-26T06:10:05.785Z,0
2017-11-26T06:10:31.261Z,0
2017-11-26T06:10:56.765Z,0
2017-11-26T06:11:22.279Z,0
2017-11-26T06:11:47.755Z,0
2017-11-26T06:12:13.293Z,0
2017-11-26T06:12:38.790Z,0
2017-11-26T06:13:04.284Z,0
2017-11-26T06:13:29.737Z,0
2017-11-26T06:13:55.247Z,0
2017-11-26T06:14:20.770Z,0
2017-11-26T06:14:46.264Z,0
2017-11-26T06:15:11.719Z,0
2017-11-26T06:15:37.249Z,0
2017-11-26T06:16:02.765Z,0
2017-11-26T06:16:28.253Z,0
2017-11-26T06:16:53.726Z,0
2017-11-26T06:17:19.180Z,0
2017-11-26T06:17:44.689Z,0
2017-11-26T06:18:10.154Z,0
2017-11-26T06:18:35.604Z,0
2017-11-26T06:19:01.101Z,0
2017-11-26T06:19:26.611Z,0
2017-11-26T06:19:52.160Z,0
2017-11-26T06:20:17.625Z,0
2017-11-26T06:20:43.127Z,0
2017-11-26T06:21:08.599Z,0
2017-11-26T06:21:34.115Z,0
2017-11-26T06:21:59.590Z,0
2017-11-26T06:22:25.099Z,0
2017-11-26T06:22:50.613Z,0
2017-11-26T06:23:16.045Z,0
2017-11-26T06:23:41.527Z,0
2017-11-26T06:24:07.004Z,0
2017-11-26T06:24:32.533Z,0
2017-11-26T06:24:58.022Z,0
2017-11-26T06:25:23.494Z,0
2017-11-26T06:25:49.006Z,0
2017-11-26T06:26:14.479Z,0
2017-11-26T06:26:39.954Z,0
2017-11-26T06:27:05.486Z,0
2017-11-26T06:27:30.990Z,0
2017-11-26T06:27:56.494Z,0
2017-11-26T06:28:21.976Z,0
2017-11-26T06:28:47.436Z,0
2017-11-26T06:29:12.922Z,0
2017-11-26T06:29:38.423Z,0
2017-11-26T06:30:03.901Z,0
2017-11-26T06:30:29.410Z,0
2017-11-26T06:30:54.931Z,0
2017-11-26T06:31:20.610Z,0
2017-11-26T06:31:46.121Z,0
2017-11-26T06:32:11.583Z,0
2017-11-26T06:32:37.102Z,0
2017-11-26T06:33:02.595Z,0
2017-11-26T06:33:28.086Z,0
2017-11-26T06:33:53.597Z,0
2017-11-26T06:34:19.071Z,0
2017-11-26T06:34:44.609Z,0
2017-11-26T06:35:10.123Z,0
2017-11-26T06:35:35.612Z,0
2017-11-26T06:36:01.134Z,0
2017-11-26T06:36:26.612Z,0
2017-11-26T06:36:52.056Z,0
2017-11-26T06:37:17.564Z,0
2017-11-26T06:37:43.030Z,0
2017-11-26T06:38:08.602Z,0
2017-11-26T06:38:34.115Z,0
2017-11-26T06:38:59.614Z,0
2017-11-26T06:39:25.129Z,0
2017-11-26T06:39:50.604Z,0
2017-11-26T06:40:16.086Z,0
2017-11-26T06:40:41.610Z,0
2017-11-26T06:41:07.087Z,0
2017-11-26T06:41:32.603Z,0
2017-11-26T06:41:58.080Z,0
2017-11-26T06:42:23.571Z,0
2017-11-26T06:42:49.052Z,0
2017-11-26T06:43:14.533Z,0
2017-11-26T06:43:40.052Z,0
2017-11-26T06:44:05.570Z,0
2017-11-26T06:44:31.056Z,0
2017-11-26T06:44:56.547Z,0
2017-11-26T06:45:22.018Z,0
2017-11-26T06:45:47.511Z,0
2017-11-26T06:46:12.973Z,0
2017-11-26T06:46:38.457Z,0
2017-11-26T06:47:03.934Z,0
2017-11-26T06:47:29.420Z,0
2017-11-26T06:47:54.922Z,0
2017-11-26T06:48:20.390Z,0
2017-11-26T06:48:45.859Z,0
2017-11-26T06:49:11.303Z,0
2017-11-26T06:49:36.833Z,0
2017-11-26T06:50:02.374Z,0
2017-11-26T06:50:27.830Z,0
2017-11-26T06:50:53.343Z,0
2017-11-26T06:51:18.796Z,0
2017-11-26T06:51:44.319Z,0
2017-11-26T06:52:09.781Z,0
2017-11-26T06:52:35.309Z,0
2017-11-26T06:53:00.791Z,0
2017-11-26T06:53:26.248Z,0
2017-11-26T06:53:51.761Z,0
2017-11-26T06:54:17.281Z,0
2017-11-26T06:54:42.767Z,0
2017-11-26T06:55:08.291Z,0
2017-11-26T06:55:33.780Z,0
2017-11-26T06:55:59.239Z,0
2017-11-26T06:56:24.759Z,0
2017-11-26T06:56:50.289Z,0
2017-11-26T06:57:15.780Z,0
2017-11-26T06:57:41.268Z,0
2017-11-26T06:58:06.759Z,0
2017-11-26T06:58:32.221Z,0
2017-11-26T06:58:57.731Z,0
2017-11-26T06:59:23.199Z,0
2017-11-26T06:59:48.678Z,0
2017-11-26T07:00:14.144Z,0
2017-11-26T07:00:39.639Z,0
2017-11-26T07:01:05.156Z,0
2017-11-26T07:01:30.623Z,0
2017-11-26T07:01:56.093Z,0
2017-11-26T07:02:21.547Z,0
2017-11-26T07:02:47.041Z,0
2017-11-26T07:03:12.542Z,0
2017-11-26T07:03:37.997Z,0
2017-11-26T07:04:03.506Z,0
2017-11-26T07:04:29.001Z,0
2017-11-26T07:04:54.484Z,0
2017-11-26T07:05:19.990Z,0
2017-11-26T07:05:45.464Z,0
2017-11-26T07:06:10.985Z,5
2017-11-26T07:06:36.462Z,5
2017-11-26T07:07:02.023Z,5
2017-11-26T07:07:27.517Z,5
2017-11-26T07:07:52.992Z,0
2017-11-26T07:08:18.467Z,0
2017-11-26T07:08:43.943Z,0
2017-11-26T07:09:09.436Z,5
2017-11-26T07:09:34.906Z,5
2017-11-26T07:10:00.380Z,5
2017-11-26T07:10:25.891Z,5
2017-11-26T07:10:51.357Z,5
2017-11-26T07:11:16.863Z,5
2017-11-26T07:11:42.376Z,5
2017-11-26T07:12:07.826Z,5
2017-11-26T07:12:33.335Z,5
2017-11-26T07:12:58.816Z,5
2017-11-26T07:13:24.250Z,5
2017-11-26T07:13:49.752Z,5
2017-11-26T07:14:15.222Z,5
2017-11-26T07:14:40.724Z,10
2017-11-26T07:15:06.212Z,10
2017-11-26T07:15:31.783Z,10
2017-11-26T07:15:57.281Z,10
2017-11-26T07:16:22.743Z,10
2017-11-26T07:16:48.243Z,5
2017-11-26T07:17:13.776Z,10
2017-11-26T07:17:39.286Z,10
2017-11-26T07:18:04.780Z,10
2017-11-26T07:18:30.245Z,10
2017-11-26T07:18:55.713Z,10
2017-11-26T07:19:21.165Z,10
2017-11-26T07:19:46.666Z,10
2017-11-26T07:20:12.161Z,10
2017-11-26T07:20:37.639Z,10
2017-11-26T07:21:03.151Z,10
2017-11-26T07:21:28.641Z,10
2017-11-26T07:21:54.107Z,10
2017-11-26T07:22:19.614Z,10
2017-11-26T07:22:45.121Z,15
2017-11-26T07:23:10.561Z,15
2017-11-26T07:23:36.045Z,15
2017-11-26T07:24:01.490Z,15
2017-11-26T07:24:26.959Z,15
2017-11-26T07:24:52.422Z,10
2017-11-26T07:25:17.941Z,10
2017-11-26T07:25:43.431Z,10
2017-11-26T07:26:08.920Z,10
2017-11-26T07:26:34.378Z,10
2017-11-26T07:26:59.846Z,10
2017-11-26T07:27:25.406Z,15
2017-11-26T07:27:50.912Z,10
2017-11-26T07:28:16.418Z,10
2017-11-26T07:28:41.880Z,15
2017-11-26T07:29:07.345Z,15
2017-11-26T07:29:32.871Z,15
2017-11-26T07:29:58.315Z,15
2017-11-26T07:30:23.857Z,15
2017-11-26T07:30:49.278Z,15
2017-11-26T07:31:14.762Z,15
2017-11-26T07:31:40.222Z,10
2017-11-26T07:32:05.708Z,10
2017-11-26T07:32:31.268Z,10
2017-11-26T07:32:56.723Z,10
2017-11-26T07:33:22.201Z,10
2017-11-26T07:33:47.703Z,15
2017-11-26T07:34:13.221Z,15
2017-11-26T07:34:38.673Z,20
2017-11-26T07:35:04.188Z,20
2017-11-26T07:35:29.668Z,20
2017-11-26T07:35:55.089Z,20
2017-11-26T07:36:20.553Z,20
2017-11-26T07:36:46.014Z,20
2017-11-26T07:37:11.492Z,20
2017-11-26T07:37:37.054Z,20
2017-11-26T07:38:02.522Z,20
2017-11-26T07:38:27.972Z,20
2017-11-26T07:38:53.517Z,20
2017-11-26T07:39:18.930Z,25
2017-11-26T07:39:44.394Z,25
2017-11-26T07:40:09.853Z,25
2017-11-26T07:40:35.313Z,25
2017-11-26T07:41:00.780Z,25
2017-11-26T07:41:26.278Z,25
2017-11-26T07:41:51.712Z,25
2017-11-26T07:42:17.292Z,25
2017-11-26T07:42:42.853Z,25
2017-11-26T07:43:08.395Z,25
2017-11-26T07:43:33.831Z,25
2017-11-26T07:43:59.355Z,25
2017-11-26T07:44:24.844Z,25
2017-11-26T07:44:50.328Z,25
2017-11-26T07:45:15.864Z,25
2017-11-26T07:45:41.315Z,25
2017-11-26T07:46:06.779Z,25
2017-11-26T07:46:32.291Z,30
2017-11-26T07:46:57.785Z,30
2017-11-26T07:47:23.266Z,30
2017-11-26T07:47:48.780Z,30
2017-11-26T07:48:14.235Z,30
2017-11-26T07:48:39.714Z,30
2017-11-26T07:49:05.185Z,25
2017-11-26T07:49:30.708Z,25
2017-11-26T07:49:56.187Z,25
2017-11-26T07:50:21.688Z,20
2017-11-26T07:50:47.157Z,20
2017-11-26T07:51:12.597Z,25
2017-11-26T07:51:38.086Z,25
2017-11-26T07:52:03.528Z,30
2017-11-26T07:52:29.001Z,30
2017-11-26T07:52:54.475Z,30
2017-11-26T07:53:19.967Z,30
2017-11-26T07:53:45.507Z,35
2017-11-26T07:54:10.972Z,30
2017-11-26T07:54:36.446Z,30
2017-11-26T07:55:01.911Z,25
2017-11-26T07:55:27.351Z,25
2017-11-26T07:55:52.928Z,25
2017-11-26T07:56:18.351Z,30
2017-11-26T07:56:43.820Z,35
2017-11-26T07:57:09.299Z,40
2017-11-26T07:57:34.778Z,35
2017-11-26T07:58:00.259Z,35
2017-11-26T07:58:25.718Z,40
2017-11-26T07:58:51.284Z,45
2017-11-26T07:59:16.778Z,50
2017-11-26T07:59:42.256Z,45
2017-11-26T08:00:07.752Z,45
2017-11-26T08:00:33.230Z,45
2017-11-26T08:00:58.715Z,45
2017-11-26T08:01:24.205Z,45
2017-11-26T08:01:49.706Z,50
2017-11-26T08:02:15.182Z,50
2017-11-26T08:02:40.670Z,45
2017-11-26T08:03:06.146Z,35
2017-11-26T08:03:31.692Z,30
2017-11-26T08:03:57.121Z,30
2017-11-26T08:04:22.644Z,30
2017-11-26T08:04:48.127Z,30
2017-11-26T08:05:13.575Z,30
2017-11-26T08:05:39.060Z,35
2017-11-26T08:06:04.554Z,35
2017-11-26T08:06:30.031Z,40
2017-11-26T08:06:55.499Z,40
2017-11-26T08:07:20.977Z,35
2017-11-26T08:07:46.434Z,35
2017-11-26T08:08:11.995Z,35
2017-11-26T08:08:37.478Z,35
2017-11-26T08:09:02.949Z,30
2017-11-26T08:09:28.436Z,35
2017-11-26T08:09:53.909Z,35
2017-11-26T08:10:19.362Z,40
2017-11-26T08:10:44.873Z,40
2017-11-26T08:11:10.394Z,40
2017-11-26T08:11:35.906Z,40
2017-11-26T08:12:01.378Z,40
2017-11-26T08:12:26.860Z,45
2017-11-26T08:12:52.353Z,50
2017-11-26T08:13:17.833Z,50
2017-11-26T08:13:43.307Z,50
2017-11-26T08:14:08.806Z,40
2017-11-26T08:14:34.280Z,30
2017-11-26T08:14:59.775Z,35
2017-11-26T08:15:25.298Z,40
2017-11-26T08:15:50.758Z,40
2017-11-26T08:16:16.221Z,45
2017-11-26T08:16:41.753Z,50
2017-11-26T08:17:07.289Z,50
2017-11-26T08:17:32.775Z,55
2017-11-26T08:17:58.238Z,65
2017-11-26T08:18:23.744Z,70
2017-11-26T08:18:49.243Z,80
2017-11-26T08:19:14.768Z,80
2017-11-26T08:19:40.284Z,85
2017-11-26T08:20:05.760Z,85
2017-11-26T08:20:31.270Z,90
2017-11-26T08:20:56.744Z,85
2017-11-26T08:21:22.239Z,70
2017-11-26T08:21:47.711Z,65
2017-11-26T08:22:13.193Z,65
2017-11-26T08:22:38.665Z,65
2017-11-26T08:23:04.172Z,85
2017-11-26T08:23:29.648Z,90
2017-11-26T08:23:55.121Z,95
2017-11-26T08:24:20.568Z,80
2017-11-26T08:24:46.088Z,80
2017-11-26T08:25:11.616Z,80
2017-11-26T08:25:37.060Z,95
2017-11-26T08:26:02.528Z,95
2017-11-26T08:26:27.985Z,95
2017-11-26T08:26:53.483Z,95
2017-11-26T08:27:19.036Z,85
2017-11-26T08:27:44.496Z,85
2017-11-26T08:28:09.973Z,80
2017-11-26T08:28:35.459Z,80
2017-11-26T08:29:00.937Z,85
2017-11-26T08:29:26.420Z,90
2017-11-26T08:29:51.909Z,70
2017-11-26T08:30:17.363Z,55
2017-11-26T08:30:42.843Z,60
2017-11-26T08:31:08.344Z,70
2017-11-26T08:31:33.812Z,70
2017-11-26T08:31:59.333Z,65
2017-11-26T08:32:24.844Z,70
2017-11-26T08:32:50.341Z,70
2017-11-26T08:33:15.800Z,70
2017-11-26T08:33:41.318Z,80
2017-11-26T08:34:06.821Z,75
2017-11-26T08:34:32.305Z,80
2017-11-26T08:34:57.732Z,75
2017-11-26T08:35:23.294Z,75
2017-11-26T08:35:48.800Z,75
2017-11-26T08:36:14.289Z,75
2017-11-26T08:36:39.803Z,75
2017-11-26T08:37:05.293Z,75
2017-11-26T08:37:30.774Z,80
2017-11-26T08:37:56.260Z,80
2017-11-26T08:38:21.753Z,85
2017-11-26T08:38:47.268Z,85
2017-11-26T08:39:12.797Z,85
2017-11-26T08:39:38.258Z,85
2017-11-26T08:40:03.785Z,85
2017-11-26T08:40:29.271Z,90
2017-11-26T08:40:54.748Z,90
2017-11-26T08:41:20.244Z,85
2017-11-26T08:41:45.702Z,85
2017-11-26T08:42:11.187Z,80
2017-11-26T08:42:36.653Z,75
2017-11-26T08:43:02.106Z,75
2017-11-26T08:43:27.631Z,80
2017-11-26T08:43:53.065Z,85
2017-11-26T08:44:18.584Z,85
2017-11-26T08:44:44.110Z,85
2017-11-26T08:45:09.664Z,85
2017-11-26T08:45:35.090Z,90
2017-11-26T08:46:00.588Z,90
2017-11-26T08:46:26.061Z,85
2017-11-26T08:46:51.531Z,80
2017-11-26T08:47:17.040Z,80
2017-11-26T08:47:42.518Z,80
2017-11-26T08:48:07.993Z,80
2017-11-26T08:48:33.618Z,80
2017-11-26T08:48:59.128Z,80
2017-11-26T08:49:24.593Z,85
2017-11-26T08:49:50.188Z,85
2017-11-26T08:50:15.703Z,100
2017-11-26T08:50:41.139Z,110
2017-11-26T08:51:06.683Z,120
2017-11-26T08:51:32.170Z,130
2017-11-26T08:51:57.639Z,125
2017-11-26T08:52:23.153Z,125
2017-11-26T08:52:48.642Z,120
2017-11-26T08:53:14.059Z,115
2017-11-26T08:53:39.604Z,115
2017-11-26T08:54:05.157Z,105
2017-11-26T08:54:30.593Z,100
2017-11-26T08:54:56.068Z,95
2017-11-26T08:55:21.523Z,90
2017-11-26T08:55:47.001Z,90
2017-11-26T08:56:12.481Z,90
2017-11-26T08:56:38.041Z,95
2017-11-26T08:57:03.611Z,100
2017-11-26T08:57:29.098Z,105
2017-11-26T08:57:54.621Z,115
2017-11-26T08:58:20.095Z,110
2017-11-26T08:58:45.576Z,110
2017-11-26T08:59:11.052Z,100
2017-11-26T08:59:36.548Z,90
2017-11-26T09:00:02.042Z,90
2017-11-26T09:00:27.567Z,100
2017-11-26T09:00:53.110Z,110
2017-11-26T09:01:18.600Z,120
2017-11-26T09:01:44.066Z,110
2017-11-26T09:02:09.553Z,110
2017-11-26T09:02:35.078Z,125
2017-11-26T09:03:00.569Z,125
2017-11-26T09:03:26.013Z,120
2017-11-26T09:03:51.471Z,110
2017-11-26T09:04:16.969Z,115
2017-11-26T09:04:42.455Z,105
2017-11-26T09:05:07.943Z,105
2017-11-26T09:05:33.454Z,100
2017-11-26T09:05:58.945Z,105
2017-11-26T09:06:24.436Z,120
2017-11-26T09:06:49.949Z,120
2017-11-26T09:07:15.407Z,100
2017-11-26T09:07:40.890Z,85
2017-11-26T09:08:06.367Z,80
2017-11-26T09:08:31.828Z,85
2017-11-26T09:08:57.324Z,85
2017-11-26T09:09:22.784Z,80
2017-11-26T09:09:48.269Z,85
2017-11-26T09:10:13.763Z,80
2017-11-26T09:11:42.977Z,95
2017-11-26T09:12:08.418Z,95
2017-11-26T09:12:33.909Z,95
2017-11-26T09:12:59.376Z,105
2017-11-26T09:13:24.823Z,110
2017-11-26T09:13:50.306Z,115
2017-11-26T09:14:15.791Z,115
2017-11-26T09:14:41.298Z,105
2017-11-26T09:15:06.778Z,110
2017-11-26T09:15:32.255Z,115
2017-11-26T09:15:57.750Z,105
2017-11-26T09:16:23.263Z,95
2017-11-26T09:16:48.687Z,90
2017-11-26T09:17:14.202Z,95
2017-11-26T09:17:39.677Z,100
2017-11-26T09:18:05.183Z,105
2017-11-26T09:18:30.648Z,105
2017-11-26T09:18:56.100Z,110
2017-11-26T09:19:21.577Z,105
2017-11-26T09:19:47.082Z,100
2017-11-26T09:20:12.623Z,100
2017-11-26T09:20:38.101Z,100
2017-11-26T09:21:03.623Z,110
2017-11-26T09:21:29.112Z,110
2017-11-26T09:21:54.594Z,115
2017-11-26T09:22:20.079Z,115
2017-11-26T09:22:45.521Z,115
2017-11-26T09:23:10.998Z,105
2017-11-26T09:23:36.481Z,115
2017-11-26T09:24:01.991Z,120
2017-11-26T09:24:27.420Z,125
2017-11-26T09:24:52.915Z,105
2017-11-26T09:25:18.416Z,85
2017-11-26T09:25:43.932Z,90
2017-11-26T09:26:09.398Z,90
2017-11-26T09:26:34.901Z,100
2017-11-26T09:28:03.985Z,135
2017-11-26T09:28:29.450Z,130
2017-11-26T09:28:55.011Z,135
2017-11-26T09:29:20.452Z,130
2017-11-26T09:29:45.950Z,135
2017-11-26T09:30:11.398Z,145
2017-11-26T09:30:36.849Z,135
2017-11-26T09:31:02.370Z,120
2017-11-26T09:31:27.832Z,125
2017-11-26T09:31:53.327Z,130
2017-11-26T09:32:18.858Z,125
2017-11-26T09:32:44.355Z,130
2017-11-26T09:33:09.850Z,125
2017-11-26T09:33:35.341Z,110
2017-11-26T09:34:00.745Z,100
2017-11-26T09:34:26.278Z,100
2017-11-26T09:34:51.781Z,100
2017-11-26T09:35:17.225Z,95
2017-11-26T09:35:42.747Z,85
2017-11-26T09:36:08.206Z,80
2017-11-26T09:36:33.753Z,85
2017-11-26T09:36:59.227Z,95
2017-11-26T09:37:24.720Z,95
2017-11-26T09:37:50.188Z,100
2017-11-26T09:38:15.665Z,95
2017-11-26T09:38:41.146Z,85
2017-11-26T09:39:06.689Z,80
2017-11-26T09:39:32.211Z,65
2017-11-26T09:39:57.673Z,65
2017-11-26T09:40:23.106Z,70
2017-11-26T09:40:48.577Z,70
2017-11-26T09:41:14.116Z,75
2017-11-26T09:41:39.607Z,80
2017-11-26T09:42:05.160Z,85
2017-11-26T09:42:30.606Z,80
2017-11-26T09:42:56.058Z,85
2017-11-26T09:43:21.574Z,90
2017-11-26T09:43:47.080Z,85
2017-11-26T09:44:12.522Z,80
2017-11-26T09:44:38.048Z,80
2017-11-26T09:45:03.534Z,85
2017-11-26T09:45:28.990Z,105
2017-11-26T09:45:54.463Z,120
2017-11-26T09:46:19.943Z,125
2017-11-26T09:46:45.464Z,125
2017-11-26T09:47:11.011Z,135
2017-11-26T09:47:36.475Z,130
2017-11-26T09:48:01.986Z,120
2017-11-26T09:48:27.430Z,130
2017-11-26T09:48:52.916Z,140
2017-11-26T09:49:18.367Z,120
2017-11-26T09:49:43.904Z,115
2017-11-26T09:50:09.422Z,120
2017-11-26T09:50:34.930Z,130
2017-11-26T09:51:00.354Z,130
2017-11-26T09:51:25.835Z,135
2017-11-26T09:51:51.275Z,145
2017-11-26T09:52:16.782Z,160
2017-11-26T09:52:42.254Z,165
2017-11-26T09:53:07.725Z,170
2017-11-26T09:53:33.207Z,160
2017-11-26T09:53:58.715Z,165
2017-11-26T09:54:24.177Z,210
2017-11-26T09:54:49.637Z,195
2017-11-26T09:55:15.103Z,165
2017-11-26T09:55:40.602Z,165
2017-11-26T09:56:06.116Z,165
2017-11-26T09:56:31.578Z,170
2017-11-26T09:56:57.075Z,170
2017-11-26T09:57:22.629Z,155
2017-11-26T09:57:48.113Z,130
2017-11-26T09:58:13.564Z,115
2017-11-26T09:58:39.079Z,90
2017-11-26T09:59:04.595Z,80
2017-11-26T09:59:30.112Z,80
2017-11-26T09:59:55.642Z,75
2017-11-26T10:00:21.142Z,85
2017-11-26T10:00:46.618Z,90
2017-11-26T10:01:12.086Z,85
2017-11-26T10:01:37.556Z,90
2017-11-26T10:02:03.070Z,95
2017-11-26T10:02:28.514Z,85
2017-11-26T10:02:53.996Z,80
2017-11-26T10:03:19.486Z,90
2017-11-26T10:03:44.941Z,95
2017-11-26T10:04:10.401Z,85
2017-11-26T10:04:35.879Z,80
2017-11-26T10:05:01.364Z,75
2017-11-26T10:05:26.881Z,80
2017-11-26T10:05:52.346Z,85
2017-11-26T10:06:17.811Z,90
2017-11-26T10:06:43.386Z,95
2017-11-26T10:07:08.884Z,95
2017-11-26T10:07:34.334Z,85
2017-11-26T10:07:59.862Z,85
2017-11-26T10:08:25.313Z,100
2017-11-26T10:08:50.789Z,105
2017-11-26T10:09:16.250Z,110
2017-11-26T10:09:41.723Z,100
2017-11-26T10:11:05.751Z,110
2017-11-26T10:11:31.436Z,135
2017-11-26T10:13:00.498Z,125
2017-11-26T10:13:25.975Z,115
2017-11-26T10:13:51.528Z,95
2017-11-26T10:14:16.970Z,85
2017-11-26T10:14:42.506Z,90
2017-11-26T10:15:08.013Z,105
2017-11-26T10:15:33.461Z,105
2017-11-26T10:15:58.926Z,110
2017-11-26T10:16:24.410Z,120
2017-11-26T10:16:49.891Z,110
2017-11-26T10:17:15.343Z,100
2017-11-26T10:17:40.877Z,95
2017-11-26T10:18:06.302Z,95
2017-11-26T10:18:31.765Z,95
2017-11-26T10:18:57.229Z,100
2017-11-26T10:19:22.738Z,95
2017-11-26T10:19:48.238Z,80
2017-11-26T10:20:13.702Z,75
2017-11-26T10:20:39.176Z,85
2017-11-26T10:21:04.678Z,85
2017-11-26T10:21:30.169Z,95
2017-11-26T10:21:55.625Z,100
2017-11-26T10:22:21.097Z,90
2017-11-26T10:22:46.573Z,75
2017-11-26T10:23:12.029Z,65
2017-11-26T10:23:37.498Z,55
2017-11-26T10:24:02.966Z,55
2017-11-26T10:24:28.412Z,60
2017-11-26T10:24:53.896Z,55
2017-11-26T10:25:19.411Z,55
2017-11-26T10:25:44.873Z,60
2017-11-26T10:26:10.367Z,65
2017-11-26T10:26:35.830Z,65
2017-11-26T10:27:01.340Z,65
2017-11-26T10:27:26.826Z,65
2017-11-26T10:27:52.289Z,70
2017-11-26T10:28:17.759Z,80
2017-11-26T10:28:43.262Z,85
2017-11-26T10:29:08.749Z,90
2017-11-26T10:29:34.251Z,100
2017-11-26T10:29:59.733Z,100
2017-11-26T10:30:25.209Z,100
2017-11-26T10:30:50.671Z,105
2017-11-26T10:31:16.154Z,105
2017-11-26T10:31:41.630Z,95
2017-11-26T10:32:07.106Z,115
2017-11-26T10:32:32.606Z,125
2017-11-26T10:32:58.053Z,145
2017-11-26T10:33:23.565Z,150
2017-11-26T10:33:49.054Z,145
2017-11-26T10:34:14.527Z,140
2017-11-26T10:34:40.009Z,130
2017-11-26T10:35:05.503Z,125
2017-11-26T10:35:30.983Z,120
2017-11-26T10:35:56.439Z,115
2017-11-26T10:36:21.929Z,115
2017-11-26T10:36:47.427Z,110
2017-11-26T10:37:12.930Z,115
2017-11-26T10:37:38.411Z,110
2017-11-26T10:38:03.896Z,100
2017-11-26T10:38:29.386Z,95
2017-11-26T10:38:54.876Z,95
2017-11-26T10:39:20.378Z,90
2017-11-26T10:39:45.872Z,80
2017-11-26T10:40:11.343Z,80
2017-11-26T10:40:36.860Z,80
2017-11-26T10:41:02.337Z,90
2017-11-26T10:41:27.819Z,105
2017-11-26T10:41:53.335Z,125
2017-11-26T10:42:18.820Z,135
2017-11-26T10:42:44.308Z,140
2017-11-26T10:43:09.866Z,130
2017-11-26T10:43:35.309Z,130
2017-11-26T10:44:00.847Z,125
2017-11-26T10:44:26.345Z,110
2017-11-26T10:44:51.829Z,90
2017-11-26T10:45:17.316Z,85
2017-11-26T10:45:42.849Z,80
2017-11-26T10:46:08.340Z,85
2017-11-26T10:46:33.840Z,80
2017-11-26T10:46:59.287Z,85
2017-11-26T10:47:24.791Z,80
2017-11-26T10:47:50.268Z,80
2017-11-26T10:48:15.769Z,80
2017-11-26T10:48:41.285Z,75
2017-11-26T10:49:06.726Z,75
2017-11-26T10:49:32.202Z,70
2017-11-26T10:49:57.720Z,70
2017-11-26T10:50:23.219Z,75
2017-11-26T10:50:48.758Z,75
2017-11-26T10:51:14.231Z,65
2017-11-26T10:51:39.711Z,65
2017-11-26T10:52:05.165Z,70
2017-11-26T10:52:30.644Z,85
2017-11-26T10:52:56.131Z,100
2017-11-26T10:53:21.611Z,120
2017-11-26T10:53:47.083Z,130
2017-11-26T10:54:12.548Z,125
2017-11-26T10:54:38.005Z,135
2017-11-26T10:55:03.467Z,140
2017-11-26T10:55:28.963Z,145
2017-11-26T10:55:54.401Z,140
2017-11-26T10:56:19.906Z,140
2017-11-26T10:56:45.390Z,165
2017-11-26T10:57:10.838Z,155
2017-11-26T10:57:36.357Z,150
2017-11-26T10:58:01.890Z,150
2017-11-26T10:58:27.360Z,140
2017-11-26T10:58:52.880Z,120
2017-11-26T10:59:18.334Z,115
2017-11-26T10:59:43.811Z,115
2017-11-26T11:00:09.303Z,115
2017-11-26T11:00:34.805Z,105
2017-11-26T11:01:00.290Z,95
2017-11-26T11:01:25.718Z,90
2017-11-26T11:01:51.213Z,80
2017-11-26T11:03:10.142Z,65
2017-11-26T11:03:35.638Z,50
2017-11-26T11:04:01.110Z,50
2017-11-26T11:04:26.597Z,50
2017-11-26T11:04:52.158Z,50
2017-11-26T11:05:17.661Z,45
2017-11-26T11:05:43.206Z,45
2017-11-26T11:06:08.648Z,45
2017-11-26T11:06:34.148Z,50
2017-11-26T11:06:59.654Z,45
2017-11-26T11:07:25.122Z,50
2017-11-26T11:07:50.613Z,55
2017-11-26T11:08:16.119Z,60
2017-11-26T11:08:41.571Z,70
2017-11-26T11:09:07.081Z,70
2017-11-26T11:09:32.533Z,80
2017-11-26T11:09:58.013Z,75
2017-11-26T11:10:23.508Z,75
2017-11-26T11:10:49.027Z,70
2017-11-26T11:11:14.471Z,65